sensor_id;sensor_type;location;lat;lon;timestamp;pressure;altitude;pressure_sealevel;temperature;humidity
55490;BME280;44029;52.956;4.772;2023-01-29T00:02:09;102986.72;;;7.74;100.00
55490;BME280;44029;52.956;4.772;2023-01-29T00:04:34;102985.16;;;7.80;100.00
55490;BME280;44029;52.956;4.772;2023-01-29T00:07:00;102979.31;;;7.83;100.00
55490;BME280;44029;52.956;4.772;2023-01-29T00:09:27;102982.91;;;7.83;100.00
55490;BME280;44029;52.956;4.772;2023-01-29T00:11:52;102972.25;;;7.65;100.00
55490;BME280;44029;52.956;4.772;2023-01-29T00:14:18;102969.84;;;7.70;100.00
55490;BME280;44029;52.956;4.772;2023-01-29T00:16:43;102979.06;;;7.69;100.00
55490;BME280;44029;52.956;4.772;2023-01-29T00:19:09;102963.31;;;7.80;100.00
55490;BME280;44029;52.956;4.772;2023-01-29T00:21:34;102965.88;;;7.81;100.00
55490;BME280;44029;52.956;4.772;2023-01-29T00:23:59;102961.50;;;7.72;100.00
55490;BME280;44029;52.956;4.772;2023-01-29T00:26:25;102959.06;;;7.77;100.00
55490;BME280;44029;52.956;4.772;2023-01-29T00:28:51;102958.88;;;7.79;100.00
55490;BME280;44029;52.956;4.772;2023-01-29T00:31:21;102952.09;;;7.74;100.00
55490;BME280;44029;52.956;4.772;2023-01-29T00:33:48;102959.06;;;7.77;100.00
55490;BME280;44029;52.956;4.772;2023-01-29T00:36:15;102952.91;;;7.83;100.00
55490;BME280;44029;52.956;4.772;2023-01-29T00:38:41;102947.28;;;7.85;100.00
55490;BME280;44029;52.956;4.772;2023-01-29T00:41:11;102952.81;;;8.00;100.00
55490;BME280;44029;52.956;4.772;2023-01-29T00:43:57;102957.97;;;7.86;100.00
55490;BME280;44029;52.956;4.772;2023-01-29T00:46:41;102951.69;;;7.86;100.00
55490;BME280;44029;52.956;4.772;2023-01-29T00:49:07;102953.88;;;7.90;100.00
55490;BME280;44029;52.956;4.772;2023-01-29T00:51:33;102955.06;;;7.88;100.00
55490;BME280;44029;52.956;4.772;2023-01-29T00:53:59;102958.53;;;7.82;100.00
55490;BME280;44029;52.956;4.772;2023-01-29T00:56:24;102958.84;;;7.87;100.00
55490;BME280;44029;52.956;4.772;2023-01-29T00:58:50;102970.34;;;7.74;100.00
55490;BME280;44029;52.956;4.772;2023-01-29T01:01:15;102959.97;;;7.69;100.00
55490;BME280;44029;52.956;4.772;2023-01-29T01:03:41;102967.63;;;7.74;100.00
55490;BME280;44029;52.956;4.772;2023-01-29T01:06:09;102961.75;;;7.85;100.00
55490;BME280;44029;52.956;4.772;2023-01-29T01:08:34;102959.78;;;7.71;100.00
55490;BME280;44029;52.956;4.772;2023-01-29T01:11:19;102960.13;;;7.68;100.00
55490;BME280;44029;52.956;4.772;2023-01-29T01:13:44;102956.31;;;7.85;100.00
55490;BME280;44029;52.956;4.772;2023-01-29T01:16:16;102948.91;;;7.94;100.00
55490;BME280;44029;52.956;4.772;2023-01-29T01:18:42;102953.56;;;7.85;100.00
55490;BME280;44029;52.956;4.772;2023-01-29T01:21:08;102953.22;;;7.88;100.00
55490;BME280;44029;52.956;4.772;2023-01-29T01:23:33;102957.88;;;7.80;100.00
55490;BME280;44029;52.956;4.772;2023-01-29T01:25:59;102954.25;;;7.87;100.00
55490;BME280;44029;52.956;4.772;2023-01-29T01:28:25;102939.78;;;7.79;100.00
55490;BME280;44029;52.956;4.772;2023-01-29T01:30:50;102941.09;;;7.60;100.00
55490;BME280;44029;52.956;4.772;2023-01-29T01:33:16;102945.03;;;7.57;100.00
55490;BME280;44029;52.956;4.772;2023-01-29T01:35:41;102942.09;;;7.67;100.00
55490;BME280;44029;52.956;4.772;2023-01-29T01:38:06;102943.56;;;7.78;100.00
55490;BME280;44029;52.956;4.772;2023-01-29T01:40:32;102946.16;;;7.71;100.00
55490;BME280;44029;52.956;4.772;2023-01-29T01:42:58;102947.19;;;7.70;100.00
55490;BME280;44029;52.956;4.772;2023-01-29T01:50:50;102950.53;;;7.80;100.00
55490;BME280;44029;52.956;4.772;2023-01-29T01:53:33;102943.06;;;7.74;100.00
55490;BME280;44029;52.956;4.772;2023-01-29T01:56:06;102948.88;;;7.71;100.00
55490;BME280;44029;52.956;4.772;2023-01-29T01:58:36;102951.91;;;7.76;100.00
55490;BME280;44029;52.956;4.772;2023-01-29T02:01:07;102955.56;;;7.91;100.00
55490;BME280;44029;52.956;4.772;2023-01-29T02:03:44;102958.69;;;7.88;100.00
55490;BME280;44029;52.956;4.772;2023-01-29T02:06:29;102949.19;;;7.76;100.00
55490;BME280;44029;52.956;4.772;2023-01-29T02:09:20;102936.13;;;7.94;100.00
55490;BME280;44029;52.956;4.772;2023-01-29T02:12:05;102940.28;;;7.82;100.00
55490;BME280;44029;52.956;4.772;2023-01-29T02:14:32;102937.72;;;7.81;100.00
55490;BME280;44029;52.956;4.772;2023-01-29T02:17:01;102941.31;;;7.81;100.00
55490;BME280;44029;52.956;4.772;2023-01-29T02:19:44;102936.03;;;7.80;100.00
55490;BME280;44029;52.956;4.772;2023-01-29T02:30:49;102923.66;;;7.92;100.00
55490;BME280;44029;52.956;4.772;2023-01-29T02:38:51;102926.31;;;7.77;100.00
55490;BME280;44029;52.956;4.772;2023-01-29T02:41:28;102915.19;;;7.87;100.00
55490;BME280;44029;52.956;4.772;2023-01-29T02:44:18;102901.25;;;7.82;100.00
55490;BME280;44029;52.956;4.772;2023-01-29T02:49:48;102896.88;;;7.72;100.00
55490;BME280;44029;52.956;4.772;2023-01-29T02:55:04;102892.38;;;7.80;100.00
55490;BME280;44029;52.956;4.772;2023-01-29T02:57:35;102897.66;;;7.81;100.00
55490;BME280;44029;52.956;4.772;2023-01-29T03:00:06;102897.28;;;7.84;100.00
55490;BME280;44029;52.956;4.772;2023-01-29T03:02:40;102889.28;;;7.83;100.00
55490;BME280;44029;52.956;4.772;2023-01-29T03:05:13;102884.38;;;7.78;100.00
55490;BME280;44029;52.956;4.772;2023-01-29T03:07:48;102878.50;;;7.66;100.00
55490;BME280;44029;52.956;4.772;2023-01-29T03:10:27;102881.50;;;7.71;100.00
55490;BME280;44029;52.956;4.772;2023-01-29T03:13:16;102876.94;;;7.72;100.00
55490;BME280;44029;52.956;4.772;2023-01-29T03:15:50;102872.81;;;7.76;100.00
55490;BME280;44029;52.956;4.772;2023-01-29T03:18:28;102870.44;;;7.73;100.00
55490;BME280;44029;52.956;4.772;2023-01-29T03:21:01;102862.91;;;7.75;100.00
55490;BME280;44029;52.956;4.772;2023-01-29T03:23:30;102870.66;;;7.63;100.00
55490;BME280;44029;52.956;4.772;2023-01-29T03:26:17;102870.66;;;7.63;100.00
55490;BME280;44029;52.956;4.772;2023-01-29T03:29:04;102871.88;;;7.61;100.00
55490;BME280;44029;52.956;4.772;2023-01-29T03:31:51;102878.19;;;7.84;100.00
55490;BME280;44029;52.956;4.772;2023-01-29T03:34:46;102876.53;;;7.75;100.00
55490;BME280;44029;52.956;4.772;2023-01-29T03:39:43;102859.63;;;7.57;100.00
55490;BME280;44029;52.956;4.772;2023-01-29T03:50:17;102861.22;;;7.74;100.00
55490;BME280;44029;52.956;4.772;2023-01-29T03:53:03;102863.78;;;7.76;100.00
55490;BME280;44029;52.956;4.772;2023-01-29T03:58:19;102861.88;;;7.76;100.00
55490;BME280;44029;52.956;4.772;2023-01-29T04:00:54;102855.50;;;7.84;100.00
55490;BME280;44029;52.956;4.772;2023-01-29T04:03:31;102850.91;;;7.84;100.00
55490;BME280;44029;52.956;4.772;2023-01-29T04:08:38;102850.13;;;7.76;100.00
55490;BME280;44029;52.956;4.772;2023-01-29T04:11:11;102844.25;;;7.87;100.00
55490;BME280;44029;52.956;4.772;2023-01-29T04:13:39;102838.84;;;7.79;100.00
55490;BME280;44029;52.956;4.772;2023-01-29T04:16:06;102839.38;;;7.97;100.00
55490;BME280;44029;52.956;4.772;2023-01-29T04:18:35;102842.22;;;7.81;100.00
55490;BME280;44029;52.956;4.772;2023-01-29T04:21:00;102824.56;;;7.91;100.00
55490;BME280;44029;52.956;4.772;2023-01-29T04:23:26;102824.19;;;7.80;100.00
55490;BME280;44029;52.956;4.772;2023-01-29T04:26:21;102821.84;;;7.91;100.00
55490;BME280;44029;52.956;4.772;2023-01-29T04:28:53;102825.94;;;7.72;100.00
55490;BME280;44029;52.956;4.772;2023-01-29T04:31:25;102826.88;;;7.57;100.00
55490;BME280;44029;52.956;4.772;2023-01-29T04:39:44;102845.56;;;7.68;100.00
55490;BME280;44029;52.956;4.772;2023-01-29T04:45:17;102862.84;;;7.60;100.00
55490;BME280;44029;52.956;4.772;2023-01-29T04:47:54;102846.16;;;7.55;100.00
55490;BME280;44029;52.956;4.772;2023-01-29T04:50:38;102846.28;;;7.62;100.00
55490;BME280;44029;52.956;4.772;2023-01-29T04:53:21;102842.75;;;7.53;100.00
55490;BME280;44029;52.956;4.772;2023-01-29T04:55:58;102841.91;;;7.52;100.00
55490;BME280;44029;52.956;4.772;2023-01-29T04:58:39;102850.34;;;7.66;100.00
55490;BME280;44029;52.956;4.772;2023-01-29T05:01:07;102849.94;;;7.54;100.00
55490;BME280;44029;52.956;4.772;2023-01-29T05:03:36;102857.03;;;7.63;100.00
55490;BME280;44029;52.956;4.772;2023-01-29T05:06:05;102839.03;;;7.54;100.00
55490;BME280;44029;52.956;4.772;2023-01-29T05:08:32;102844.91;;;7.34;100.00
55490;BME280;44029;52.956;4.772;2023-01-29T05:10:59;102840.91;;;7.53;100.00
55490;BME280;44029;52.956;4.772;2023-01-29T05:13:25;102832.00;;;7.60;100.00
55490;BME280;44029;52.956;4.772;2023-01-29T05:16:15;102824.66;;;7.83;100.00
55490;BME280;44029;52.956;4.772;2023-01-29T05:18:43;102823.63;;;7.61;100.00
55490;BME280;44029;52.956;4.772;2023-01-29T05:21:09;102821.31;;;7.50;100.00
55490;BME280;44029;52.956;4.772;2023-01-29T05:23:34;102823.88;;;7.51;100.00
55490;BME280;44029;52.956;4.772;2023-01-29T05:26:00;102815.00;;;7.49;100.00
55490;BME280;44029;52.956;4.772;2023-01-29T05:28:25;102816.88;;;7.26;100.00
55490;BME280;44029;52.956;4.772;2023-01-29T05:30:53;102810.34;;;7.35;100.00
55490;BME280;44029;52.956;4.772;2023-01-29T05:33:28;102808.28;;;7.37;100.00
55490;BME280;44029;52.956;4.772;2023-01-29T05:35:55;102792.28;;;7.34;100.00
55490;BME280;44029;52.956;4.772;2023-01-29T05:38:21;102795.19;;;7.32;100.00
55490;BME280;44029;52.956;4.772;2023-01-29T05:40:46;102784.75;;;7.36;100.00
55490;BME280;44029;52.956;4.772;2023-01-29T05:43:20;102768.38;;;7.44;100.00
55490;BME280;44029;52.956;4.772;2023-01-29T05:45:56;102761.28;;;7.35;100.00
55490;BME280;44029;52.956;4.772;2023-01-29T05:48:22;102763.25;;;7.41;100.00
55490;BME280;44029;52.956;4.772;2023-01-29T05:50:48;102768.31;;;7.29;100.00
55490;BME280;44029;52.956;4.772;2023-01-29T05:53:13;102758.81;;;7.17;100.00
55490;BME280;44029;52.956;4.772;2023-01-29T05:55:38;102760.44;;;7.03;100.00
55490;BME280;44029;52.956;4.772;2023-01-29T05:58:04;102758.09;;;7.23;100.00
55490;BME280;44029;52.956;4.772;2023-01-29T06:00:30;102761.69;;;7.24;100.00
55490;BME280;44029;52.956;4.772;2023-01-29T06:02:57;102760.88;;;7.38;100.00
55490;BME280;44029;52.956;4.772;2023-01-29T06:05:22;102765.75;;;7.28;100.00
55490;BME280;44029;52.956;4.772;2023-01-29T06:07:48;102750.53;;;7.33;100.00
55490;BME280;44029;52.956;4.772;2023-01-29T06:10:15;102759.75;;;7.55;100.00
55490;BME280;44029;52.956;4.772;2023-01-29T06:12:42;102762.25;;;7.42;100.00
55490;BME280;44029;52.956;4.772;2023-01-29T06:15:07;102764.00;;;7.35;100.00
55490;BME280;44029;52.956;4.772;2023-01-29T06:17:33;102749.63;;;7.41;100.00
55490;BME280;44029;52.956;4.772;2023-01-29T06:19:58;102746.72;;;7.43;100.00
55490;BME280;44029;52.956;4.772;2023-01-29T06:22:24;102748.13;;;7.39;100.00
55490;BME280;44029;52.956;4.772;2023-01-29T06:24:49;102752.13;;;7.28;100.00
55490;BME280;44029;52.956;4.772;2023-01-29T06:27:14;102750.72;;;7.32;100.00
55490;BME280;44029;52.956;4.772;2023-01-29T06:29:40;102746.97;;;7.33;100.00
55490;BME280;44029;52.956;4.772;2023-01-29T06:32:05;102740.59;;;7.18;100.00
55490;BME280;44029;52.956;4.772;2023-01-29T06:34:31;102735.09;;;7.26;100.00
55490;BME280;44029;52.956;4.772;2023-01-29T06:36:56;102729.94;;;7.31;100.00
55490;BME280;44029;52.956;4.772;2023-01-29T06:39:21;102732.06;;;7.21;100.00
55490;BME280;44029;52.956;4.772;2023-01-29T06:41:47;102730.66;;;7.25;100.00
55490;BME280;44029;52.956;4.772;2023-01-29T06:44:12;102730.31;;;7.28;100.00
55490;BME280;44029;52.956;4.772;2023-01-29T06:46:37;102729.66;;;7.26;100.00
55490;BME280;44029;52.956;4.772;2023-01-29T06:49:03;102732.41;;;7.18;100.00
55490;BME280;44029;52.956;4.772;2023-01-29T06:51:28;102722.78;;;7.30;100.00
55490;BME280;44029;52.956;4.772;2023-01-29T06:53:53;102722.78;;;7.30;100.00
55490;BME280;44029;52.956;4.772;2023-01-29T06:56:20;102719.56;;;7.49;100.00
55490;BME280;44029;52.956;4.772;2023-01-29T06:58:46;102727.19;;;7.31;100.00
55490;BME280;44029;52.956;4.772;2023-01-29T07:01:11;102721.03;;;7.37;100.00
55490;BME280;44029;52.956;4.772;2023-01-29T07:03:37;102718.91;;;7.24;100.00
55490;BME280;44029;52.956;4.772;2023-01-29T07:06:03;102712.63;;;7.24;100.00
55490;BME280;44029;52.956;4.772;2023-01-29T07:08:29;102718.91;;;7.24;100.00
55490;BME280;44029;52.956;4.772;2023-01-29T07:10:59;102711.16;;;7.36;100.00
55490;BME280;44029;52.956;4.772;2023-01-29T07:13:25;102718.34;;;7.29;100.00
55490;BME280;44029;52.956;4.772;2023-01-29T07:15:51;102715.94;;;7.34;100.00
55490;BME280;44029;52.956;4.772;2023-01-29T07:18:16;102712.38;;;7.33;100.00
55490;BME280;44029;52.956;4.772;2023-01-29T07:20:42;102712.56;;;7.32;100.00
55490;BME280;44029;52.956;4.772;2023-01-29T07:23:13;102712.25;;;7.50;100.00
55490;BME280;44029;52.956;4.772;2023-01-29T07:25:39;102710.25;;;7.21;100.00
55490;BME280;44029;52.956;4.772;2023-01-29T07:28:05;102710.25;;;7.21;100.00
55490;BME280;44029;52.956;4.772;2023-01-29T07:30:31;102717.03;;;7.25;100.00
55490;BME280;44029;52.956;4.772;2023-01-29T07:33:03;102707.88;;;7.41;100.00
55490;BME280;44029;52.956;4.772;2023-01-29T07:35:29;102712.31;;;7.19;100.00
55490;BME280;44029;52.956;4.772;2023-01-29T07:37:55;102701.50;;;7.25;100.00
55490;BME280;44029;52.956;4.772;2023-01-29T07:40:20;102699.34;;;7.21;100.00
55490;BME280;44029;52.956;4.772;2023-01-29T07:42:45;102700.25;;;7.13;100.00
55490;BME280;44029;52.956;4.772;2023-01-29T07:45:11;102715.94;;;7.11;100.00
55490;BME280;44029;52.956;4.772;2023-01-29T07:47:37;102715.22;;;7.17;100.00
55490;BME280;44029;52.956;4.772;2023-01-29T07:50:03;102719.16;;;7.14;100.00
55490;BME280;44029;52.956;4.772;2023-01-29T07:52:30;102718.59;;;7.19;100.00
55490;BME280;44029;52.956;4.772;2023-01-29T07:54:56;102714.00;;;7.20;100.00
55490;BME280;44029;52.956;4.772;2023-01-29T07:57:21;102716.63;;;7.13;100.00
55490;BME280;44029;52.956;4.772;2023-01-29T07:59:47;102723.41;;;7.17;100.00
55490;BME280;44029;52.956;4.772;2023-01-29T08:02:12;102730.97;;;7.30;100.00
55490;BME280;44029;52.956;4.772;2023-01-29T08:04:38;102719.88;;;7.31;100.00
55490;BME280;44029;52.956;4.772;2023-01-29T08:07:03;102712.25;;;7.27;100.00
55490;BME280;44029;52.956;4.772;2023-01-29T08:09:29;102707.44;;;7.29;100.00
55490;BME280;44029;52.956;4.772;2023-01-29T08:11:55;102708.84;;;7.48;100.00
55490;BME280;44029;52.956;4.772;2023-01-29T08:14:20;102707.88;;;7.41;100.00
55490;BME280;44029;52.956;4.772;2023-01-29T08:16:45;102717.09;;;7.40;100.00
55490;BME280;44029;52.956;4.772;2023-01-29T08:19:11;102715.88;;;7.19;100.00
55490;BME280;44029;52.956;4.772;2023-01-29T08:21:36;102726.44;;;7.22;100.00
55490;BME280;44029;52.956;4.772;2023-01-29T08:24:01;102722.78;;;7.30;100.00
55490;BME280;44029;52.956;4.772;2023-01-29T08:26:27;102716.59;;;7.36;100.00
55490;BME280;44029;52.956;4.772;2023-01-29T08:28:52;102719.28;;;7.21;100.00
55490;BME280;44029;52.956;4.772;2023-01-29T08:31:18;102717.34;;;7.30;100.00
55490;BME280;44029;52.956;4.772;2023-01-29T08:33:47;102716.78;;;7.34;100.00
55490;BME280;44029;52.956;4.772;2023-01-29T08:36:13;102716.06;;;7.41;100.00
55490;BME280;44029;52.956;4.772;2023-01-29T08:38:38;102709.56;;;7.42;100.00
55490;BME280;44029;52.956;4.772;2023-01-29T08:41:04;102704.56;;;7.30;100.00
55490;BME280;44029;52.956;4.772;2023-01-29T08:43:30;102707.72;;;7.19;100.00
55490;BME280;44029;52.956;4.772;2023-01-29T08:45:55;102713.81;;;7.21;100.00
55490;BME280;44029;52.956;4.772;2023-01-29T08:48:21;102701.28;;;7.35;100.00
55490;BME280;44029;52.956;4.772;2023-01-29T08:50:46;102701.59;;;7.17;100.00
55490;BME280;44029;52.956;4.772;2023-01-29T08:53:12;102697.41;;;7.06;100.00
55490;BME280;44029;52.956;4.772;2023-01-29T08:55:38;102704.03;;;7.35;100.00
55490;BME280;44029;52.956;4.772;2023-01-29T08:58:09;102690.00;;;7.38;100.00
55490;BME280;44029;52.956;4.772;2023-01-29T09:00:35;102692.69;;;7.23;100.00
55490;BME280;44029;52.956;4.772;2023-01-29T09:03:01;102686.13;;;7.32;100.00
55490;BME280;44029;52.956;4.772;2023-01-29T09:05:28;102681.00;;;7.14;100.00
55490;BME280;44029;52.956;4.772;2023-01-29T09:07:55;102686.56;;;7.21;100.00
55490;BME280;44029;52.956;4.772;2023-01-29T09:10:21;102674.69;;;7.37;100.00
55490;BME280;44029;52.956;4.772;2023-01-29T09:12:46;102676.09;;;7.33;100.00
55490;BME280;44029;52.956;4.772;2023-01-29T09:15:12;102678.03;;;7.24;100.00
55490;BME280;44029;52.956;4.772;2023-01-29T09:17:37;102680.06;;;7.45;100.00
55490;BME280;44029;52.956;4.772;2023-01-29T09:20:03;102676.88;;;7.57;100.00
55490;BME280;44029;52.956;4.772;2023-01-29T09:22:31;102681.97;;;7.60;100.00
55490;BME280;44029;52.956;4.772;2023-01-29T09:24:56;102680.22;;;7.67;100.00
55490;BME280;44029;52.956;4.772;2023-01-29T09:27:22;102682.28;;;7.80;100.00
55490;BME280;44029;52.956;4.772;2023-01-29T09:29:47;102682.59;;;7.85;100.00
55490;BME280;44029;52.956;4.772;2023-01-29T09:32:12;102679.28;;;7.89;100.00
55490;BME280;44029;52.956;4.772;2023-01-29T09:34:38;102675.16;;;8.08;100.00
55490;BME280;44029;52.956;4.772;2023-01-29T09:37:04;102676.84;;;7.94;100.00
55490;BME280;44029;52.956;4.772;2023-01-29T09:39:29;102674.41;;;8.00;100.00
55490;BME280;44029;52.956;4.772;2023-01-29T09:44:38;102673.28;;;7.94;100.00
55490;BME280;44029;52.956;4.772;2023-01-29T09:47:13;102671.94;;;8.05;100.00
55490;BME280;44029;52.956;4.772;2023-01-29T09:49:42;102666.88;;;8.02;100.00
55490;BME280;44029;52.956;4.772;2023-01-29T09:52:27;102668.47;;;8.11;100.00
55490;BME280;44029;52.956;4.772;2023-01-29T09:57:57;102662.44;;;8.16;100.00
55490;BME280;44029;52.956;4.772;2023-01-29T10:00:33;102654.44;;;8.14;100.00
55490;BME280;44029;52.956;4.772;2023-01-29T10:24:58;102622.97;;;8.33;100.00
55490;BME280;44029;52.956;4.772;2023-01-29T10:27:31;102620.31;;;8.55;100.00
55490;BME280;44029;52.956;4.772;2023-01-29T10:29:59;102617.53;;;8.48;100.00
55490;BME280;44029;52.956;4.772;2023-01-29T10:32:26;102616.75;;;8.39;100.00
55490;BME280;44029;52.956;4.772;2023-01-29T10:35:00;102613.88;;;8.62;100.00
55490;BME280;44029;52.956;4.772;2023-01-29T10:37:39;102614.03;;;8.76;100.00
55490;BME280;44029;52.956;4.772;2023-01-29T10:40:21;102619.50;;;8.76;100.00
55490;BME280;44029;52.956;4.772;2023-01-29T10:43:02;102609.94;;;8.65;100.00
55490;BME280;44029;52.956;4.772;2023-01-29T10:48:39;102594.38;;;8.65;100.00
55490;BME280;44029;52.956;4.772;2023-01-29T10:51:14;102589.03;;;8.57;100.00
55490;BME280;44029;52.956;4.772;2023-01-29T10:54:09;102590.22;;;8.48;100.00
55490;BME280;44029;52.956;4.772;2023-01-29T11:01:58;102581.44;;;8.38;100.00
55490;BME280;44029;52.956;4.772;2023-01-29T11:04:25;102576.78;;;8.53;100.00
55490;BME280;44029;52.956;4.772;2023-01-29T11:06:52;102561.72;;;8.57;100.00
55490;BME280;44029;52.956;4.772;2023-01-29T11:12:13;102553.00;;;8.68;100.00
55490;BME280;44029;52.956;4.772;2023-01-29T11:14:50;102545.78;;;8.61;100.00
55490;BME280;44029;52.956;4.772;2023-01-29T11:17:20;102537.78;;;8.59;100.00
55490;BME280;44029;52.956;4.772;2023-01-29T11:19:47;102534.59;;;8.56;100.00
55490;BME280;44029;52.956;4.772;2023-01-29T11:22:18;102527.31;;;8.63;100.00
55490;BME280;44029;52.956;4.772;2023-01-29T11:24:45;102516.59;;;8.61;100.00
55490;BME280;44029;52.956;4.772;2023-01-29T11:27:20;102517.97;;;8.79;100.00
55490;BME280;44029;52.956;4.772;2023-01-29T11:29:47;102523.94;;;8.61;100.00
55490;BME280;44029;52.956;4.772;2023-01-29T11:32:24;102514.16;;;8.73;100.00
55490;BME280;44029;52.956;4.772;2023-01-29T11:37:43;102523.63;;;8.77;100.00
55490;BME280;44029;52.956;4.772;2023-01-29T11:40:32;102515.03;;;8.74;100.00
55490;BME280;44029;52.956;4.772;2023-01-29T11:43:12;102503.03;;;8.53;100.00
55490;BME280;44029;52.956;4.772;2023-01-29T11:45:40;102511.03;;;8.55;100.00
55490;BME280;44029;52.956;4.772;2023-01-29T11:48:14;102502.84;;;8.55;100.00
55490;BME280;44029;52.956;4.772;2023-01-29T11:50:41;102490.56;;;8.44;100.00
55490;BME280;44029;52.956;4.772;2023-01-29T11:53:19;102496.53;;;8.76;100.00
55490;BME280;44029;52.956;4.772;2023-01-29T11:55:47;102495.19;;;8.65;100.00
55490;BME280;44029;52.956;4.772;2023-01-29T11:58:28;102483.72;;;8.55;100.00
55490;BME280;44029;52.956;4.772;2023-01-29T12:00:56;102477.34;;;8.69;100.00
55490;BME280;44029;52.956;4.772;2023-01-29T12:05:57;102470.59;;;8.93;100.00
55490;BME280;44029;52.956;4.772;2023-01-29T12:08:23;102456.28;;;8.91;100.00
55490;BME280;44029;52.956;4.772;2023-01-29T12:10:49;102446.28;;;8.48;100.00
55490;BME280;44029;52.956;4.772;2023-01-29T12:13:26;102443.97;;;8.74;100.00
55490;BME280;44029;52.956;4.772;2023-01-29T12:16:24;102434.19;;;8.58;100.00
55490;BME280;44029;52.956;4.772;2023-01-29T12:19:15;102442.13;;;8.81;100.00
55490;BME280;44029;52.956;4.772;2023-01-29T12:21:56;102431.53;;;8.71;100.00
55490;BME280;44029;52.956;4.772;2023-01-29T12:27:11;102415.88;;;8.86;100.00
55490;BME280;44029;52.956;4.772;2023-01-29T12:29:53;102410.78;;;8.77;100.00
55490;BME280;44029;52.956;4.772;2023-01-29T12:32:28;102391.66;;;8.77;100.00
55490;BME280;44029;52.956;4.772;2023-01-29T12:35:02;102389.88;;;8.97;100.00
55490;BME280;44029;52.956;4.772;2023-01-29T12:40:15;102384.25;;;8.70;100.00
55490;BME280;44029;52.956;4.772;2023-01-29T12:42:45;102372.81;;;8.54;100.00
55490;BME280;44029;52.956;4.772;2023-01-29T12:45:17;102371.25;;;8.44;100.00
55490;BME280;44029;52.956;4.772;2023-01-29T12:47:47;102357.00;;;8.49;100.00
55490;BME280;44029;52.956;4.772;2023-01-29T12:50:18;102345.81;;;8.44;100.00
55490;BME280;44029;52.956;4.772;2023-01-29T12:52:50;102334.84;;;8.65;100.00
55490;BME280;44029;52.956;4.772;2023-01-29T12:55:31;102337.19;;;8.68;100.00
55490;BME280;44029;52.956;4.772;2023-01-29T12:57:59;102323.03;;;8.58;100.00
55490;BME280;44029;52.956;4.772;2023-01-29T13:00:34;102329.41;;;8.72;100.00
55490;BME280;44029;52.956;4.772;2023-01-29T13:03:21;102314.44;;;8.68;100.00
55490;BME280;44029;52.956;4.772;2023-01-29T13:06:07;102315.38;;;8.82;100.00
55490;BME280;44029;52.956;4.772;2023-01-29T13:11:21;102302.75;;;8.81;100.00
55490;BME280;44029;52.956;4.772;2023-01-29T13:13:53;102297.88;;;8.69;100.00
55490;BME280;44029;52.956;4.772;2023-01-29T13:16:25;102295.69;;;8.58;100.00
55490;BME280;44029;52.956;4.772;2023-01-29T13:19:01;102292.69;;;8.88;100.00
55490;BME280;44029;52.956;4.772;2023-01-29T13:21:39;102294.41;;;8.89;100.00
55490;BME280;44029;52.956;4.772;2023-01-29T13:24:13;102293.34;;;8.90;100.00
55490;BME280;44029;52.956;4.772;2023-01-29T13:26:39;102286.59;;;8.79;100.00
55490;BME280;44029;52.956;4.772;2023-01-29T13:29:06;102285.38;;;8.88;100.00
55490;BME280;44029;52.956;4.772;2023-01-29T13:31:33;102270.84;;;8.88;100.00
55490;BME280;44029;52.956;4.772;2023-01-29T13:34:05;102269.22;;;9.00;100.00
55490;BME280;44029;52.956;4.772;2023-01-29T13:36:32;102259.72;;;8.89;100.00
55490;BME280;44029;52.956;4.772;2023-01-29T13:39:33;102251.34;;;8.98;100.00
55490;BME280;44029;52.956;4.772;2023-01-29T13:42:14;102254.47;;;8.95;100.00
55490;BME280;44029;52.956;4.772;2023-01-29T13:44:46;102241.13;;;9.26;100.00
55490;BME280;44029;52.956;4.772;2023-01-29T13:47:29;102227.25;;;9.35;100.00
55490;BME280;44029;52.956;4.772;2023-01-29T13:50:02;102235.16;;;8.96;100.00
55490;BME280;44029;52.956;4.772;2023-01-29T13:52:54;102230.72;;;8.88;100.00
55490;BME280;44029;52.956;4.772;2023-01-29T13:55:31;102224.72;;;9.20;100.00
55490;BME280;44029;52.956;4.772;2023-01-29T14:00:52;102217.13;;;9.22;100.00
55490;BME280;44029;52.956;4.772;2023-01-29T14:13:46;102191.25;;;9.38;100.00
55490;BME280;44029;52.956;4.772;2023-01-29T14:18:56;102193.16;;;9.51;100.00
55490;BME280;44029;52.956;4.772;2023-01-29T14:21:31;102195.69;;;9.25;100.00
55490;BME280;44029;52.956;4.772;2023-01-29T14:24:20;102189.19;;;9.53;100.00
55490;BME280;44029;52.956;4.772;2023-01-29T14:26:53;102186.25;;;9.48;100.00
55490;BME280;44029;52.956;4.772;2023-01-29T14:29:24;102188.53;;;9.31;100.00
55490;BME280;44029;52.956;4.772;2023-01-29T14:31:57;102171.91;;;9.19;100.00
55490;BME280;44029;52.956;4.772;2023-01-29T14:34:32;102168.75;;;9.22;100.00
55490;BME280;44029;52.956;4.772;2023-01-29T14:39:43;102166.03;;;9.22;100.00
55490;BME280;44029;52.956;4.772;2023-01-29T14:42:25;102164.34;;;9.28;100.00
55490;BME280;44029;52.956;4.772;2023-01-29T14:52:28;102146.00;;;8.95;100.00
55490;BME280;44029;52.956;4.772;2023-01-29T14:54:59;102152.31;;;9.02;100.00
55490;BME280;44029;52.956;4.772;2023-01-29T14:57:27;102157.38;;;9.05;100.00
55490;BME280;44029;52.956;4.772;2023-01-29T15:00:04;102158.88;;;9.15;100.00
55490;BME280;44029;52.956;4.772;2023-01-29T15:02:39;102161.81;;;9.13;100.00
55490;BME280;44029;52.956;4.772;2023-01-29T15:05:10;102166.41;;;9.06;100.00
55490;BME280;44029;52.956;4.772;2023-01-29T15:07:41;102153.78;;;9.05;100.00
55490;BME280;44029;52.956;4.772;2023-01-29T15:10:24;102157.19;;;9.20;100.00
55490;BME280;44029;52.956;4.772;2023-01-29T15:12:55;102157.59;;;9.17;100.00
55490;BME280;44029;52.956;4.772;2023-01-29T15:15:39;102161.81;;;9.13;100.00
55490;BME280;44029;52.956;4.772;2023-01-29T15:18:14;102154.25;;;9.22;100.00